• Join FlightAware (Why Join?)
  • Login
  • US Flag 
02:40PM EDT


 

Airport Tracker/Info


-or-


 

Live Flight TrackerFlight Track Log ✈ UPS35 ✈ 20-Dec-2013 ✈ YSSY / SYD - WSSS / SIN

Flight Track Log - Related Links

Times and Time Zones

All times are in EST time to prevent confusion due to time zone crossing. See the UPS35 flight status page for this flight to view local times or setup timezone preferences in your user account.

Time Position Orientation Groundspeed Altitude Reporting Facility
EST Latitude Longitude Course Direction KTS MPH feet Rate Location/Type
03:33AM -33.9606 151.1797 270° West 74 85  Level FlightAware ADS-B (YRAY)
03:33AM -33.9497 151.1770 348° North 150 173 540 Level FlightAware ADS-B (YRAY)
03:34AM -33.9334 151.1726 347° North 182 209 400 2,160 Climbing FlightAware ADS-B (YRAY)
03:34AM -33.9209 151.1693 348° North 165 190 1,300 2,760 Climbing FlightAware ADS-B (YSSY / SYD)
03:34AM -33.9146 151.1664 339° North 167 192 1,700 1,980 Climbing FlightAware ADS-B
03:34AM -33.9058 151.1582 322° Northwest 178 205 2,100 1,860 Climbing FlightAware ADS-B (YRAY)
03:35AM -33.9018 151.1519 307° West 181 208 2,300 1,980 Climbing FlightAware ADS-B (YSSY / SYD)
03:35AM -33.8925 151.1348 303° West 183 211 3,000 2,100 Climbing FlightAware ADS-B (YSSY / SYD)
03:35AM -33.8866 151.1235 302° West 187 215 3,400 1,380 Climbing FlightAware ADS-B (YPLB)
03:35AM -33.8784 151.1084 303° West 218 251 3,700 1,020 Climbing FlightAware ADS-B
03:36AM -33.8661 151.0847 302° West 242 278 4,100 1,260 Climbing FlightAware ADS-B (YSSY / SYD)
03:36AM -33.8528 151.0597 303° West 263 303 4,600 2,460 Climbing FlightAware ADS-B (YSSY / SYD)
03:36AM -33.8408 151.0354 301° West 264 304 5,700 3,120 Climbing FlightAware ADS-B (YSSY / SYD)
03:37AM -33.8291 151.0095 299° West 265 305 6,700 2,820 Climbing FlightAware ADS-B (YSSY / SYD)
03:37AM -33.8222 150.9841 288° West 274 315 7,600 2,700 Climbing FlightAware ADS-B (YSSY / SYD)
03:37AM -33.8173 150.9491 279° West 279 321 8,500 2,580 Climbing FlightAware ADS-B (YSSY / SYD)
03:38AM -33.8134 150.9182 279° West 285 328 9,400 2,880 Climbing FlightAware ADS-B (YSSY / SYD)
03:38AM -33.8138 150.9212 100° East 285 328 10,300 2,400 Climbing FlightAware ADS-B (YPLB)
03:38AM -33.8138 150.9212 100° East 296 341 10,900 1,500 Climbing FlightAware ADS-B (YPLB)
03:39AM -33.7957 150.7990 280° West 339 390 11,700 1,560 Climbing FlightAware ADS-B (YSSY / SYD)
03:39AM -33.7854 150.7443 283° West 359 413 12,600 2,040 Climbing FlightAware ADS-B
03:39AM -33.7833 150.7327 282° West 357 411 12,800 2,100 Climbing FlightAware ADS-B (YPLB)
03:40AM -33.7739 150.6767 281° West 374 430 13,800 1,920 Climbing FlightAware ADS-B (YRAY)
03:40AM -33.7653 150.6203 280° West 392 451 14,800 1,920 Climbing FlightAware ADS-B
03:41AM -33.7519 150.5423 282° West 404 465 15,800 1,980 Climbing FlightAware ADS-B (YSSY / SYD)
03:42AM -33.7379 150.4811 285° West 415 478 16,900 2,040 Climbing FlightAware ADS-B
03:42AM -33.7263 150.4444 291° West 421 484 17,300 2,160 Climbing FlightAware ADS-B (YPLB)
03:42AM -33.7056 150.4070 304° West 426 490 18,100 3,060 Climbing FlightAware ADS-B (YRAY)
03:42AM -33.6933 150.3889 309° West 411 473 18,900 3,420 Climbing FlightAware ADS-B
03:43AM -33.6611 150.3327 305° West 406 467 20,300 2,220 Climbing FlightAware ADS-B (YPLB)
03:43AM -33.6570 150.2904 277° West 410 472 20,700 660 Climbing FlightAware ADS-B (YPLB)
03:44AM -33.6698 150.2245 257° West 431 496 20,900 360 Climbing FlightAware ADS-B (YRAY)
03:44AM -33.6745 150.1884 261° West 449 517 21,000 780 Climbing FlightAware ADS-B (YSSY / SYD)
03:44AM -33.6705 150.1332 275° West 461 531 21,400 1,140 Climbing FlightAware ADS-B (YSSY / SYD)
03:44AM -33.6583 150.0863 287° West 470 541 21,800 1,320 Climbing FlightAware ADS-B
03:45AM -33.6234 149.9750 291° West 483 556 22,900 1,140 Climbing FlightAware ADS-B (YSSY / SYD)
03:46AM -33.6002 149.8947 291° West 472 543 23,300 900 Climbing Aus ATC (RADAR)
03:46AM -33.5898 149.8595 291° West 499 574 23,600 1,560 Climbing FlightAware ADS-B (YSSY / SYD)
03:47AM -33.5601 149.7512 288° West 504 580 24,800 1,620 Climbing FlightAware ADS-B (YPLB)
03:47AM -33.5309 149.6416 288° West 506 582 25,800 1,500 Climbing FlightAware ADS-B (YPLB)
03:48AM -33.4904 149.4967 288° West 495 570 27,200 1,440 Climbing Aus ATC (RADAR)
03:49AM -33.4539 149.3642 288° West 493 567 28,400 1,380 Climbing Aus ATC (RADAR)
03:50AM -33.4311 149.2838 289° West 497 572 29,100 1,320 Climbing Aus ATC (RADAR)
03:50AM -33.3929 149.1490 289° West 502 578 30,200 1,440 Climbing Aus ATC (RADAR)
03:51AM -33.3775 149.0950 289° West 503 579 30,800 1,680 Climbing Aus ATC (RADAR)
03:51AM -33.3547 149.0146 289° West 499 574 31,600 660 Climbing Aus ATC (RADAR)
03:52AM -33.3062 148.8420 289° West 497 572 31,900 180 Climbing Aus ATC (RADAR)
03:53AM -33.2871 148.7758 289° West 496 571 31,900  Level Aus ATC (RADAR)
03:53AM -33.2643 148.6964 289° West 498 573 31,900  Level Aus ATC (RADAR)
03:54AM -33.2224 148.5512 289° West 497 572 31,900  Level Aus ATC (RADAR)
03:55AM -33.1954 148.4588 289° West 498 573 31,900  Level Aus ATC (RADAR)
03:56AM -33.1456 148.2866 289° West 500 575 31,900  Level Aus ATC (RADAR)
03:56AM -33.1123 148.1973 294° West 499 574 31,900  Level Aus ATC (RADAR)
03:58AM -33.0144 148.0214 304° West 504 580 31,900 60 Level Aus ATC (RADAR)
03:58AM -32.9892 147.9745 303° West 502 578 32,000 120 Climbing Aus ATC (RADAR)
03:58AM -32.9507 147.9045 303° West 500 575 32,000 -120 Level Aus ATC (RADAR)
03:59AM -32.8808 147.7758 303° West 500 575 31,900 -120 Descending Aus ATC (RADAR)
04:00AM -32.8425 147.7061 303° West 500 575 31,900  Level Aus ATC (RADAR)
04:01AM -32.7720 147.5784 303° West 499 574 31,900  Level Aus ATC (RADAR)
04:01AM -32.7467 147.5322 303° West 497 572 31,900  Level Aus ATC (RADAR)
04:02AM -32.7084 147.4631 303° West 496 571 31,900  Level Aus ATC (RADAR)
04:03AM -32.6132 147.2912 303° West 492 566 31,900  Level Aus ATC (RADAR)
04:03AM -32.5943 147.2566 303° West 495 570 31,900  Level Aus ATC (RADAR)
04:04AM -32.5566 147.1882 303° West 492 566 31,900  Level Aus ATC (RADAR)
04:05AM -32.4870 147.0631 303° West 491 565 31,900  Level Aus ATC (RADAR)
04:05AM -32.4491 146.9946 303° West 494 568 31,900  Level Aus ATC (RADAR)
04:06AM -32.3850 146.8808 304° West 496 571 31,900  Level Aus ATC (RADAR)
04:06AM -32.3594 146.8350 303° West 497 572 31,900 60 Level Aus ATC (RADAR)
04:07AM -32.3149 146.7549 303° West 497 572 32,000  Climbing Aus ATC (RADAR)
04:08AM -32.2244 146.5947 304° West 499 574 32,000  Level Aus ATC (RADAR)
04:08AM -32.1985 146.5488 304° West 500 575 32,000  Level Aus ATC (RADAR)
04:09AM -32.1523 146.4700 305° West 500 575 32,000  Level Aus ATC (RADAR)
04:09AM -32.1107 146.4056 307° West 498 573 32,000  Level Aus ATC (RADAR)
04:14AM -31.7022 145.6845 304° West 32,000  Level Aus ATC (Calculated)
04:16AM -31.6231 145.5462 304° West  Level FlightAware Approximate
04:17AM -31.5520 145.4226 304° West  Level FlightAware Approximate
04:17AM -31.4666 145.2789 304° West 32,000  Level Aus ATC (Calculated)
04:19AM -31.5748 145.4569 126° Southeast  Level FlightAware Approximate
04:20AM -31.5011 145.3355 305° West  Level FlightAware Approximate
04:21AM -31.5748 145.4569 126° Southeast  Level FlightAware Approximate
04:22AM -31.5011 145.3355 305° West  Level FlightAware Approximate
04:22AM -31.0661 144.5992 305° West 32,000  Level Aus ATC (Calculated)
04:24AM -31.1786 144.7880 125° Southeast  Level FlightAware Approximate
04:25AM -31.1108 144.6625 304° West  Level Estimated
04:26AM -31.0380 144.5410 305° West  Level FlightAware Approximate
04:27AM -30.9651 144.4196 305° West  Level FlightAware Approximate
04:27AM -30.6459 143.8984 305° West 32,000  Level Aus ATC (Calculated)
04:29AM -30.5313 143.7094 305° West  Level FlightAware Approximate
04:30AM -30.4580 143.5890 305° West  Level FlightAware Approximate
04:31AM -30.3846 143.4688 305° West  Level FlightAware Approximate
04:32AM -30.3111 143.3488 305° West  Level FlightAware Approximate
04:32AM -30.2320 143.2201 306° West 32,000  Level Aus ATC (Calculated)
04:34AM -30.1164 143.0327 305° West  Level FlightAware Approximate
04:34AM -30.0698 142.9576 306° West 32,000  Level Aus ATC (Calculated)
04:35AM -29.9324 142.7367 306° West 32,000  Level Aus ATC (Calculated)
04:36AM -30.2041 143.1746 126° Southeast  Level FlightAware Approximate
04:37AM -30.0436 142.9153 126° Southeast  Level FlightAware Approximate
04:37AM -29.8073 142.5367 306° West 32,000  Level Aus ATC (Calculated)
04:37AM -29.7618 142.4643 306° West 32,000  Level Aus ATC (Calculated)
04:39AM -29.8672 142.6324 126° Southeast  Level FlightAware Approximate
04:39AM -29.6254 142.2477 306° West 32,000  Level Aus ATC (Calculated)
04:41AM -29.7372 142.4252 126° Southeast  Level FlightAware Approximate
04:42AM -29.8117 142.5438 126° Southeast  Level FlightAware Approximate
04:42AM -29.3513 141.8161 306° West 32,000  Level Aus ATC (Calculated)
04:44AM -29.4638 141.9927 126° Southeast  Level FlightAware Approximate
04:45AM -29.3935 141.8711 306° West  Level Estimated
04:46AM -29.4678 141.9895 126° Southeast  Level FlightAware Approximate
04:47AM -29.5420 142.1080 126° Southeast  Level FlightAware Approximate
04:47AM -28.9838 141.2442 307° West 32,000  Level Aus ATC (Calculated)
04:49AM -29.0983 141.4215 126° Southeast  Level FlightAware Approximate
04:50AM -29.0275 141.3008 306° West  Level Estimated
04:51AM -28.9518 141.1841 307° West  Level FlightAware Approximate
04:52AM -28.8760 141.0677 307° West  Level FlightAware Approximate
04:52AM -28.5674 140.6057 307° West 32,000  Level Aus ATC (Calculated)
04:53AM -28.8001 140.9514 307° West  Level FlightAware Approximate
04:54AM -28.4519 140.4303 307° West  Level FlightAware Approximate
04:55AM -28.3756 140.3148 307° West  Level FlightAware Approximate
04:56AM -28.2992 140.1994 307° West  Level FlightAware Approximate
04:57AM -28.2227 140.0843 307° West  Level FlightAware Approximate
04:57AM -28.1480 139.9722 307° West 32,000  Level Aus ATC (Calculated)
04:58AM -28.1461 139.9693 307° West  Level FlightAware Approximate
04:59AM -28.0304 139.7962 307° West  Level FlightAware Approximate
05:00AM -27.9536 139.6816 307° West  Level FlightAware Approximate
05:01AM -27.8767 139.5672 307° West  Level FlightAware Approximate
05:02AM -27.7997 139.4530 307° West  Level FlightAware Approximate
05:02AM -27.7257 139.3436 307° West 32,000  Level Aus ATC (Calculated)
05:03AM -27.7225 139.3389 307° West  Level FlightAware Approximate
05:04AM -27.6073 139.1689 307° West  Level FlightAware Approximate
05:05AM -27.5300 139.0553 307° West  Level FlightAware Approximate
05:06AM -27.4526 138.9417 308° West  Level FlightAware Approximate
05:07AM -27.3750 138.8284 308° West  Level FlightAware Approximate
05:07AM -27.3006 138.7198 308° West 32,000  Level Aus ATC (Calculated)
05:08AM -27.2974 138.7152 308° West  Level FlightAware Approximate
05:09AM -27.1814 138.5465 308° West  Level FlightAware Approximate
05:09AM -27.1582 138.5129 308° West 32,000  Level Aus ATC (Calculated)
05:10AM -27.1035 138.4337 308° West  Level FlightAware Approximate
05:10AM -27.0156 138.3065 308° West 32,000  Level Aus ATC (Calculated)
05:11AM -27.0180 138.3100 308° West  Level FlightAware Approximate
05:12AM -26.9206 138.1697 308° West  Level FlightAware Approximate
05:12AM -26.8887 138.1237 308° West 32,000  Level Aus ATC (Calculated)
05:13AM -26.7936 137.9873 308° West 32,000  Level Aus ATC (Calculated)
05:14AM -26.6666 137.8058 308° West 32,000  Level Aus ATC (Calculated)
05:15AM -26.9213 138.1707 128° Southeast  Level FlightAware Approximate
05:16AM -26.7619 137.9420 128° Southeast  Level FlightAware Approximate
05:17AM -26.8402 138.0541 128° Southeast  Level FlightAware Approximate
05:18AM -26.9184 138.1664 128° Southeast  Level FlightAware Approximate
05:18AM -26.3482 137.3538 308° West 32,000  Level Aus ATC (Calculated)
05:20AM -26.4832 137.5449 128° Southeast  Level FlightAware Approximate
05:21AM -26.5618 137.6565 128° Southeast  Level FlightAware Approximate
05:22AM -26.6403 137.7682 128° Southeast  Level FlightAware Approximate
05:23AM -26.7187 137.8801 128° Southeast  Level FlightAware Approximate
05:23AM -25.8675 136.6798 309° West 32,000  Level Aus ATC (Calculated)
05:24AM -25.7374 136.4991 309° West 32,000  Level Aus ATC (Calculated)
05:25AM -26.0035 136.8694 129° Southeast  Level FlightAware Approximate
05:25AM -25.6722 136.4089 309° West 32,000  Level Aus ATC (Calculated)
05:26AM -25.8247 136.6203 129° Southeast  Level FlightAware Approximate
05:27AM -25.5556 136.2300 308° West  Level Estimated
05:28AM -25.6334 136.3414 128° Southeast  Level FlightAware Approximate
05:29AM -25.7111 136.4529 128° Southeast  Level FlightAware Approximate
05:30AM -25.7887 136.5645 128° Southeast  Level FlightAware Approximate
05:30AM -25.2474 135.8250 309° West 32,000  Level Aus ATC (Calculated)
05:32AM -25.3792 136.0053 129° Southeast  Level FlightAware Approximate
05:33AM -25.4589 136.1148 129° Southeast  Level FlightAware Approximate
05:34AM -25.5386 136.2244 129° Southeast  Level FlightAware Approximate
05:35AM -25.6182 136.3342 129° Southeast  Level FlightAware Approximate
05:35AM -24.8203 135.2452 309° West 32,000  Level Aus ATC (Calculated)
05:37AM -24.9541 135.4260 129° Southeast  Level FlightAware Approximate
05:38AM -25.0342 135.5348 129° Southeast  Level FlightAware Approximate
05:39AM -25.1143 135.6436 129° Southeast  Level FlightAware Approximate
05:40AM -25.0394 135.5303 309° West  Level Estimated
05:40AM -24.3909 134.6693 309° West 32,000  Level Aus ATC (Calculated)
05:42AM -24.2562 134.4900 309° West  Level FlightAware Approximate
05:43AM -24.1752 134.3826 310° West  Level FlightAware Approximate
05:43AM -24.1255 134.3168 310° West 32,000  Level Aus ATC (Calculated)
05:45AM -23.9688 134.1098 310° West  Level FlightAware Approximate
05:45AM -23.9260 134.0534 130° Southeast 32,000  Level Aus ATC (Calculated)
05:47AM -23.7892 133.8737 310° West  Level FlightAware Approximate
05:47AM -23.9854 134.1313 310° West 491 565 32,000  Level FlightAware ADS-B
05:48AM -23.9265 134.0546 310° West 490 564 32,000  Level FlightAware ADS-B
05:48AM -23.8689 133.9783 310° West 490 564 32,000  Level FlightAware ADS-B
05:49AM -23.8113 133.9019 310° West 491 565 32,000  Level FlightAware ADS-B
05:49AM -23.5193 133.5406 132° Southeast 32,000  Level Aus ATC (Calculated)
05:50AM -23.7522 133.8262 310° West 492 566 32,000  Level FlightAware ADS-B
05:51AM -23.6913 133.7520 310° West 492 566 32,000  Level FlightAware ADS-B
05:51AM -23.6303 133.6780 312° West 490 564 32,000  Level FlightAware ADS-B
05:52AM -23.5704 133.6039 311° West 490 564 32,000  Level FlightAware ADS-B
05:52AM -23.5104 133.5298 311° West 490 564 32,000  Level FlightAware ADS-B
05:53AM -23.4496 133.4556 312° West 492 566 32,000  Level FlightAware ADS-B
05:54AM -23.3903 133.3815 311° West 492 566 32,000  Level FlightAware ADS-B
05:54AM -23.0735 132.9949 132° Southeast 32,000  Level Aus ATC (Calculated)
05:55AM -23.3288 133.3074 312° West 492 566 32,000  Level FlightAware ADS-B
05:55AM -23.2690 133.2334 312° West 491 565 32,000  Level FlightAware ADS-B
05:56AM -23.2084 133.1595 312° West 491 565 32,000  Level FlightAware ADS-B
05:57AM -23.1483 133.0854 311° West 492 566 32,000  Level FlightAware ADS-B
05:57AM -22.8327 132.7026 132° Southeast 32,000  Level Aus ATC (Calculated)
05:57AM -23.0872 133.0117 312° West 492 566 32,000  Level FlightAware ADS-B
05:58AM -23.0259 132.9378 312° West 492 566 32,000  Level FlightAware ADS-B
05:58AM -22.7293 132.5776 132° Southeast 32,000  Level Aus ATC (Calculated)
05:59AM -22.9693 132.8677 312° West 492 566 32,000  Level FlightAware ADS-B
05:59AM -22.9046 132.7903 312° West 492 566 32,000  Level FlightAware ADS-B
05:59AM -22.6258 132.4528 132° Southeast 32,000  Level Aus ATC (Calculated)
06:00AM -22.8438 132.7166 312° West 492 566 32,000  Level FlightAware ADS-B
06:00AM -22.7834 132.6431 312° West 492 566 32,000 60 Level FlightAware ADS-B
06:01AM -22.7233 132.5698 312° West 490 564 32,100  Climbing FlightAware ADS-B
06:02AM -22.6627 132.4966 312° West 490 564 32,000 -120 Descending FlightAware ADS-B
06:03AM -22.6010 132.4233 312° West 491 565 32,000  Level FlightAware ADS-B
06:03AM -22.5415 132.3521 312° West 491 565 32,000  Level FlightAware ADS-B
06:04AM -22.4802 132.2772 312° West 491 565 32,000  Level FlightAware ADS-B
06:04AM -22.1763 131.9141 132° Southeast 32,000  Level Aus ATC (Calculated)
06:04AM -22.4191 132.2043 312° West 490 564 32,000  Level FlightAware ADS-B
06:05AM -22.3586 132.1314 312° West 491 565 32,000  Level FlightAware ADS-B
06:06AM -22.2973 132.0583 312° West 491 565 32,000  Level FlightAware ADS-B
06:08AM -22.1552 131.8887 312° West  Level FlightAware Approximate
06:09AM -22.0699 131.7872 312° West  Level FlightAware Approximate
06:09AM -21.6901 131.3379 132° Southeast 32,000  Level Aus ATC (Calculated)
06:10AM -21.9844 131.6858 312° West  Level FlightAware Approximate
06:10AM -21.5857 131.2149 360° North 32,000  Level Aus ATC (Calculated)
06:10AM -21.5857 131.2149 312° West 32,000  Level Aus ATC (Calculated)
06:11AM -21.5341 131.1543 132° Southeast 32,000  Level Aus ATC (Calculated)
06:13AM -21.6441 131.2835 132° Southeast  Level FlightAware Approximate
06:14AM -21.2759 130.8521 133° Southeast 32,000  Level Aus ATC (Calculated)
06:14AM -21.5573 131.1815 312° West  Level FlightAware Approximate
06:15AM -21.3629 130.9537 133° Southeast  Level FlightAware Approximate
06:16AM -21.4498 131.0555 133° Southeast  Level FlightAware Approximate
06:17AM -21.5280 131.1472 312° West  Level FlightAware Approximate
06:17AM -20.9653 130.4908 313° West 32,000  Level Aus ATC (Calculated)
06:19AM -20.8198 130.3224 313° West  Level FlightAware Approximate
06:20AM -20.7324 130.2216 313° West  Level FlightAware Approximate
06:21AM -20.6450 130.1208 313° West  Level FlightAware Approximate
06:22AM -20.5575 130.0201 313° West  Level FlightAware Approximate
06:22AM -20.4979 129.9517 313° West 32,000  Level Aus ATC (Calculated)
06:24AM -20.3432 129.7743 313° West  Level FlightAware Approximate
06:25AM -20.2555 129.6740 313° West  Level FlightAware Approximate
06:26AM -20.1677 129.5739 313° West  Level FlightAware Approximate
06:27AM -20.0799 129.4739 313° West  Level FlightAware Approximate
06:27AM -19.9767 129.3565 313° West 32,000  Level Aus ATC (Calculated)
06:29AM -19.8213 129.1803 313° West  Level FlightAware Approximate
06:30AM -19.7333 129.0806 313° West  Level FlightAware Approximate
06:31AM -19.6452 128.9812 313° West  Level FlightAware Approximate
06:31AM -19.6106 128.9421 313° West 32,000  Level Aus ATC (Calculated)
06:32AM -19.5058 128.8241 313° West 32,000  Level Aus ATC (Calculated)
06:34AM -19.3485 128.6472 313° West  Level FlightAware Approximate
06:35AM -19.2602 128.5482 313° West  Level FlightAware Approximate
06:36AM -19.1718 128.4493 313° West  Level FlightAware Approximate
06:37AM -19.0834 128.3505 313° West  Level FlightAware Approximate
06:37AM -19.0334 128.2948 313° West 32,000  Level Aus ATC (Calculated)
06:39AM -18.8755 128.1189 313° West  Level FlightAware Approximate
06:40AM -18.7869 128.0205 314° West  Level FlightAware Approximate
06:41AM -18.6983 127.9221 314° West  Level FlightAware Approximate
06:42AM -18.6096 127.8239 314° West  Level FlightAware Approximate
06:42AM -18.5067 127.7101 314° West 32,000  Level Aus ATC (Calculated)
06:44AM -18.3483 127.5354 314° West  Level FlightAware Approximate
06:45AM -18.2594 127.4375 314° West  Level FlightAware Approximate
06:46AM -18.1704 127.3398 314° West  Level FlightAware Approximate
06:47AM -18.2594 127.4375 134° Southeast  Level FlightAware Approximate
06:47AM -18.0189 127.1737 134° Southeast 32,000  Level Aus ATC (Calculated)
06:49AM -18.1792 127.3494 134° Southeast  Level FlightAware Approximate
06:49AM -17.7949 126.9289 134° Southeast 32,000  Level Aus ATC (Calculated)
06:51AM -17.9405 127.0879 134° Southeast  Level FlightAware Approximate
06:51AM -17.6266 126.7457 314° West 32,000  Level Aus ATC (Calculated)
06:51AM -17.5705 126.6847 134° Southeast 32,000  Level Aus ATC (Calculated)
06:53AM -17.6643 126.7867 134° Southeast  Level FlightAware Approximate
06:54AM -17.7535 126.8838 134° Southeast  Level FlightAware Approximate
06:55AM -17.8427 126.9811 134° Southeast  Level FlightAware Approximate
06:56AM -17.9319 127.0785 134° Southeast  Level FlightAware Approximate
06:56AM -17.0646 126.1375 134° Southeast 32,000  Level Aus ATC (Calculated)
06:57AM -18.0209 127.1759 134° Southeast  Level FlightAware Approximate
06:58AM -17.1676 126.2485 134° Southeast  Level FlightAware Approximate
06:59AM -17.0884 126.1425 314° West  Level Estimated
07:00AM -16.9975 126.0475 315° West  Level FlightAware Approximate
07:01AM -16.9065 125.9525 315° West  Level FlightAware Approximate
07:01AM -16.5572 125.5932 360° North 32,000  Level Aus ATC (Calculated)
07:01AM -16.5572 125.5932 314° West 32,000  Level Aus ATC (Calculated)
07:03AM -16.4374 125.4653 314° West  Level FlightAware Approximate
07:04AM -16.3640 125.3871 314° West  Level FlightAware Approximate
07:05AM -16.4539 125.4829 134° Southeast  Level FlightAware Approximate
07:05AM -16.2237 125.2378 314° West 32,000  Level Aus ATC (Calculated)
07:06AM -16.1354 125.1440 314° West 32,000  Level Aus ATC (Calculated)
07:06AM -16.0471 125.0503 134° Southeast 32,000  Level Aus ATC (Calculated)
07:08AM -16.1521 125.1618 134° Southeast  Level FlightAware Approximate
07:08AM -15.9145 124.9099 135° Southeast 32,000  Level Aus ATC (Calculated)
07:10AM -16.0797 125.0849 135° Southeast  Level FlightAware Approximate
07:11AM -16.1697 125.1804 134° Southeast  Level FlightAware Approximate
07:12AM -16.2597 125.2760 134° Southeast  Level FlightAware Approximate
07:13AM -16.3496 125.3718 134° Southeast  Level FlightAware Approximate
07:13AM -15.3899 124.3573 135° Southeast 32,000  Level Aus ATC (Calculated)
07:14AM -16.4396 125.4676 134° Southeast  Level FlightAware Approximate
07:15AM -15.5555 124.5313 135° Southeast  Level FlightAware Approximate
07:15AM -15.1577 124.1141 135° Southeast 32,000  Level Aus ATC (Calculated)
07:16AM -15.6458 124.6263 135° Southeast  Level FlightAware Approximate
07:17AM -15.2949 124.2577 135° Southeast  Level FlightAware Approximate
07:18AM -15.3853 124.3525 135° Southeast  Level FlightAware Approximate
07:19AM -15.3062 124.2474 314° West  Level Estimated
07:20AM -15.3944 124.3444 133° Southeast  Level FlightAware Approximate
07:20AM -14.6345 123.5688 315° West 32,000  Level Aus ATC (Calculated)
07:21AM -14.5181 123.4480 135° Southeast 32,000  Level Aus ATC (Calculated)
07:23AM -14.6526 123.5876 135° Southeast  Level FlightAware Approximate
07:24AM -14.7433 123.6819 135° Southeast  Level FlightAware Approximate
07:25AM -14.8340 123.7762 135° Southeast  Level FlightAware Approximate
07:25AM -14.1100 123.0261 135° Southeast 32,000  Level Aus ATC (Calculated)
07:26AM -14.9246 123.8706 135° Southeast  Level FlightAware Approximate
07:27AM -14.2554 123.1762 135° Southeast  Level FlightAware Approximate
07:28AM -14.1765 123.0715 315° West  Level Estimated
07:29AM -14.0851 122.9783 315° West  Level FlightAware Approximate
07:30AM -13.9937 122.8851 315° West  Level FlightAware Approximate
07:30AM -13.5842 122.4859 137° Southeast 32,000  Level Aus ATC (Calculated)
07:31AM -13.9022 122.7920 315° West  Level FlightAware Approximate
07:32AM -13.4368 122.3352 315° West  Level FlightAware Approximate
07:33AM -13.3456 122.2420 315° West  Level FlightAware Approximate
07:34AM -13.2544 122.1489 315° West  Level FlightAware Approximate
07:34AM -13.1159 122.0077 315° West 32,000  Level Aus ATC (Calculated)
07:35AM -13.0573 121.9481 315° West 32,000  Level Aus ATC (Calculated)
07:36AM -12.8814 121.7693 135° Southeast 32,000  Level Aus ATC (Calculated)
07:37AM -12.9065 121.7949 315° West  Level FlightAware Approximate
07:37AM -12.8227 121.7097 315° West 32,000  Level Aus ATC (Calculated)
07:38AM -12.7869 121.6734 315° West  Level FlightAware Approximate
07:38AM -12.6466 121.5313 135° Southeast 32,000  Level Aus ATC (Calculated)
07:39AM -12.6688 121.5537 315° West  Level FlightAware Approximate
07:39AM -12.5292 121.4125 135° Southeast 32,000  Level Aus ATC (Calculated)
07:40AM -12.5506 121.4341 315° West  Level FlightAware Approximate
07:41AM -12.4255 121.3076 315° West  Level FlightAware Approximate
07:42AM -12.3339 121.2152 315° West  Level FlightAware Approximate
07:42AM -12.2941 121.1751 315° West 32,000  Level Aus ATC (Calculated)
07:42AM -12.2353 121.1159 315° West 32,000  Level Aus ATC (Calculated)
07:44AM -12.1315 121.0113 315° West  Level FlightAware Approximate
07:44AM -12.0589 120.9382 315° West 32,000  Level Aus ATC (Calculated)
07:45AM -12.0398 120.9191 315° West  Level FlightAware Approximate
07:45AM -12.0000 120.8790 315° West 32,000  Level Aus ATC (Calculated)
07:46AM -11.9397 120.8184 315° West  Level FlightAware Approximate
07:47AM -11.9847 120.6364 274° West  Level FlightAware Approximate
07:48AM -11.9930 120.7675 94° East  Level FlightAware Approximate
07:48AM -11.7267 120.3777 118° Southeast 32,000  Level Aus ATC (Calculated)
07:49AM -12.0012 120.8987 94° East  Level FlightAware Approximate
07:49AM -11.6659 120.2665 119° Southeast 32,000  Level Aus ATC (Calculated)
07:50AM -11.7988 120.5096 119° Southeast  Level FlightAware Approximate
07:51AM -11.7536 120.4270 119° Southeast  Level FlightAware Approximate
07:52AM -11.8163 120.5417 119° Southeast  Level FlightAware Approximate
07:53AM -11.8788 120.6564 119° Southeast  Level FlightAware Approximate
07:54AM -11.9414 120.7713 119° Southeast  Level FlightAware Approximate
07:55AM -12.0039 120.8861 119° Southeast  Level FlightAware Approximate
07:56AM -11.9413 120.7713 299° West  Level FlightAware Approximate
07:57AM -12.0039 120.8861 119° Southeast  Level FlightAware Approximate
07:58AM -11.9413 120.7713 299° West  Level FlightAware Approximate
07:59AM -12.0039 120.8861 119° Southeast  Level FlightAware Approximate
08:00AM -11.9413 120.7713 299° West  Level FlightAware Approximate
08:01AM -12.0039 120.8861 119° Southeast  Level FlightAware Approximate
08:02AM -11.9413 120.7713 299° West  Level FlightAware Approximate
08:03AM -12.0039 120.8861 119° Southeast  Level FlightAware Approximate
08:04AM -11.9413 120.7713 299° West  Level FlightAware Approximate
08:05AM -12.0039 120.8861 119° Southeast  Level FlightAware Approximate
08:06AM -11.9413 120.7713 299° West  Level FlightAware Approximate
08:07AM -12.0039 120.8861 119° Southeast  Level FlightAware Approximate
08:08AM -11.9560 120.7982 299° West  Level FlightAware Approximate
08:09AM -11.8935 120.6834 299° West  Level FlightAware Approximate
08:10AM -11.8310 120.5686 299° West  Level FlightAware Approximate
08:11AM -11.7684 120.4539 299° West  Level FlightAware Approximate
08:12AM -11.7057 120.3392 299° West  Level FlightAware Approximate
08:13AM -11.6430 120.2246 299° West  Level FlightAware Approximate
08:14AM -11.5802 120.1100 299° West  Level FlightAware Approximate
08:15AM -11.5175 119.9955 299° West  Level FlightAware Approximate
08:16AM -11.4546 119.8810 299° West  Level FlightAware Approximate
08:17AM -11.3917 119.7666 299° West  Level FlightAware Approximate
08:18AM -11.3288 119.6523 299° West  Level FlightAware Approximate
08:19AM -11.2658 119.5379 299° West  Level FlightAware Approximate
08:20AM -11.2028 119.4237 299° West  Level FlightAware Approximate
08:21AM -11.1398 119.3095 299° West  Level FlightAware Approximate
08:22AM -11.0767 119.1953 299° West  Level FlightAware Approximate
08:23AM -11.0135 119.0812 299° West  Level FlightAware Approximate
08:24AM -10.9503 118.9671 299° West  Level FlightAware Approximate
08:25AM -10.8871 118.8531 299° West  Level FlightAware Approximate
08:26AM -10.8238 118.7391 299° West  Level FlightAware Approximate
08:27AM -10.7605 118.6252 299° West  Level FlightAware Approximate
08:28AM -10.6972 118.5113 300° West  Level FlightAware Approximate
08:29AM -10.6338 118.3975 300° West  Level FlightAware Approximate
08:30AM -10.5703 118.2837 300° West  Level FlightAware Approximate
08:31AM -10.5069 118.1700 300° West  Level FlightAware Approximate
08:32AM -10.4433 118.0563 300° West  Level FlightAware Approximate
08:33AM -10.3798 117.9426 300° West  Level FlightAware Approximate
08:34AM -10.3162 117.8291 300° West  Level FlightAware Approximate
08:35AM -10.2526 117.7155 300° West  Level FlightAware Approximate
08:36AM -10.1889 117.6020 300° West  Level FlightAware Approximate
08:37AM -10.1252 117.4885 300° West  Level FlightAware Approximate
08:38AM -10.0614 117.3751 300° West  Level FlightAware Approximate
08:39AM -9.9961 117.2627 301° West  Level FlightAware Approximate
08:40AM -9.9299 117.1508 301° West  Level FlightAware Approximate
08:41AM -9.8636 117.0389 301° West  Level FlightAware Approximate
08:42AM -9.7973 116.9271 301° West  Level FlightAware Approximate
08:43AM -9.7311 116.8154 301° West  Level FlightAware Approximate
08:44AM -9.6650 116.7034 301° West  Level FlightAware Approximate
08:45AM -9.5990 116.5915 301° West  Level FlightAware Approximate
08:46AM -9.5329 116.4797 301° West  Level FlightAware Approximate
08:47AM -9.4668 116.3679 301° West  Level FlightAware Approximate
08:48AM -9.4006 116.2561 301° West  Level FlightAware Approximate
08:49AM -9.3344 116.1444 301° West  Level FlightAware Approximate
08:50AM -9.2682 116.0327 301° West  Level FlightAware Approximate
08:51AM -9.2019 115.9211 301° West  Level FlightAware Approximate
08:52AM -9.1356 115.8095 301° West  Level FlightAware Approximate
08:53AM -9.0693 115.6980 301° West  Level FlightAware Approximate
08:54AM -9.0029 115.5864 301° West  Level FlightAware Approximate
08:55AM -8.9365 115.4750 301° West  Level FlightAware Approximate
08:56AM -8.8701 115.3636 301° West  Level FlightAware Approximate
08:57AM -8.8036 115.2522 301° West  Level FlightAware Approximate
08:58AM -8.7296 115.1479 324° Northwest  Level FlightAware Approximate
08:59AM -8.6254 115.0716 324° Northwest  Level FlightAware Approximate
09:00AM -8.5212 114.9954 324° Northwest  Level FlightAware Approximate
09:01AM -8.4171 114.9192 324° Northwest  Level FlightAware Approximate
09:02AM -8.3129 114.8431 324° Northwest  Level FlightAware Approximate
09:03AM -8.2087 114.7670 324° Northwest  Level FlightAware Approximate
09:04AM -8.1044 114.6909 324° Northwest  Level FlightAware Approximate
09:05AM -8.0002 114.6149 324° Northwest  Level FlightAware Approximate
09:06AM -7.8960 114.5389 324° Northwest  Level FlightAware Approximate
09:07AM -7.7917 114.4629 324° Northwest  Level FlightAware Approximate
09:08AM -7.6874 114.3870 324° Northwest  Level FlightAware Approximate
09:09AM -7.5831 114.3111 324° Northwest  Level FlightAware Approximate
09:10AM -7.4788 114.2353 324° Northwest  Level FlightAware Approximate
09:11AM -7.3745 114.1595 324° Northwest  Level FlightAware Approximate
09:12AM -7.2702 114.0837 324° Northwest  Level FlightAware Approximate
09:13AM -7.1659 114.0080 324° Northwest  Level FlightAware Approximate
09:14AM -7.0615 113.9323 324° Northwest  Level FlightAware Approximate
09:15AM -6.9571 113.8567 324° Northwest  Level FlightAware Approximate
09:16AM -6.8527 113.7811 324° Northwest  Level FlightAware Approximate
09:17AM -6.7483 113.7056 324° Northwest  Level FlightAware Approximate
09:18AM -6.6438 113.6301 324° Northwest  Level FlightAware Approximate
09:19AM -6.5393 113.5547 324° Northwest  Level FlightAware Approximate
09:20AM -6.4348 113.4792 324° Northwest  Level FlightAware Approximate
09:21AM -6.3303 113.4038 324° Northwest  Level FlightAware Approximate
09:22AM -6.2319 113.3222 308° West  Level FlightAware Approximate
09:23AM -6.1533 113.2198 308° West  Level FlightAware Approximate
09:24AM -6.0747 113.1175 308° West  Level FlightAware Approximate
09:25AM -5.9960 113.0152 308° West  Level FlightAware Approximate
09:26AM -5.9174 112.9130 308° West  Level FlightAware Approximate
09:27AM -5.8387 112.8107 308° West  Level FlightAware Approximate
09:28AM -5.7600 112.7085 308° West  Level FlightAware Approximate
09:29AM -5.6813 112.6064 308° West  Level FlightAware Approximate
09:30AM -5.6026 112.5042 308° West  Level FlightAware Approximate
09:31AM -5.5239 112.4021 308° West  Level FlightAware Approximate
09:32AM -5.4451 112.3000 308° West  Level FlightAware Approximate
09:33AM -5.3663 112.1979 308° West  Level FlightAware Approximate
09:34AM -5.2875 112.0959 308° West  Level FlightAware Approximate
09:35AM -5.2087 111.9939 308° West  Level FlightAware Approximate
09:36AM -5.1299 111.8919 308° West  Level FlightAware Approximate
09:37AM -5.0510 111.7899 308° West  Level FlightAware Approximate
09:38AM -4.9722 111.6880 308° West  Level FlightAware Approximate
09:39AM -4.8933 111.5860 308° West  Level FlightAware Approximate
09:40AM -4.8144 111.4841 308° West  Level FlightAware Approximate
09:41AM -4.7355 111.3823 308° West  Level FlightAware Approximate
09:42AM -4.6566 111.2804 308° West  Level FlightAware Approximate
09:43AM -4.5778 111.1785 308° West  Level FlightAware Approximate
09:44AM -4.4992 111.0764 308° West  Level FlightAware Approximate
09:45AM -4.4205 110.9744 308° West  Level FlightAware Approximate
09:46AM -4.3419 110.8724 308° West  Level FlightAware Approximate
09:47AM -4.2632 110.7704 308° West  Level FlightAware Approximate
09:48AM -4.1845 110.6685 308° West  Level FlightAware Approximate
09:49AM -4.1058 110.5665 308° West  Level FlightAware Approximate
09:50AM -4.0271 110.4646 308° West  Level FlightAware Approximate
09:51AM -3.9473 110.3635 311° West  Level FlightAware Approximate
09:52AM -3.8635 110.2658 311° West  Level FlightAware Approximate
09:53AM -3.7797 110.1681 311° West  Level FlightAware Approximate
09:54AM -3.6958 110.0704 311° West  Level FlightAware Approximate
09:55AM -3.6119 109.9728 311° West  Level FlightAware Approximate
09:56AM -3.5281 109.8751 311° West  Level FlightAware Approximate
09:57AM -3.4442 109.7775 311° West  Level FlightAware Approximate
09:58AM -3.3603 109.6799 311° West  Level FlightAware Approximate
09:59AM -3.2764 109.5823 311° West  Level FlightAware Approximate
10:00AM -3.1925 109.4847 311° West  Level FlightAware Approximate
10:01AM -3.1086 109.3872 311° West  Level FlightAware Approximate
10:02AM -3.0247 109.2896 311° West  Level FlightAware Approximate
10:03AM -2.9407 109.1921 311° West  Level FlightAware Approximate
10:04AM -2.8567 109.0947 311° West  Level FlightAware Approximate
10:05AM -2.7726 108.9973 311° West  Level FlightAware Approximate
10:06AM -2.6884 108.9000 311° West  Level FlightAware Approximate
10:07AM -2.6043 108.8026 311° West  Level FlightAware Approximate
10:08AM -2.5202 108.7053 311° West  Level FlightAware Approximate
10:09AM -2.4361 108.6079 311° West  Level FlightAware Approximate
10:10AM -2.3521 108.5106 311° West  Level FlightAware Approximate
10:11AM -2.2680 108.4132 311° West  Level FlightAware Approximate
10:12AM -2.1840 108.3158 311° West  Level FlightAware Approximate
10:13AM -2.0999 108.2184 311° West  Level FlightAware Approximate
10:14AM -2.0159 108.1210 311° West  Level FlightAware Approximate
10:15AM -1.9319 108.0236 311° West  Level FlightAware Approximate
10:16AM -1.8479 107.9262 311° West  Level FlightAware Approximate
10:17AM -1.7639 107.8288 311° West  Level FlightAware Approximate
10:18AM -1.6799 107.7314 311° West  Level FlightAware Approximate
10:19AM -1.5959 107.6341 311° West  Level FlightAware Approximate
10:20AM -1.5119 107.5367 311° West  Level FlightAware Approximate
10:21AM -1.4279 107.4393 311° West  Level FlightAware Approximate
10:22AM -1.3435 107.3423 312° West  Level FlightAware Approximate
10:23AM -1.2582 107.2461 312° West  Level FlightAware Approximate
10:24AM -1.1729 107.1499 312° West  Level FlightAware Approximate
10:25AM -1.0875 107.0537 312° West  Level FlightAware Approximate
10:26AM -1.0022 106.9575 312° West  Level FlightAware Approximate
10:27AM -0.9169 106.8613 312° West  Level FlightAware Approximate
10:28AM -0.8316 106.7651 312° West  Level FlightAware Approximate
10:29AM -0.7462 106.6689 312° West  Level FlightAware Approximate
10:30AM -0.6609 106.5727 312° West  Level FlightAware Approximate
10:31AM -0.6158 106.5219 312° West  Level FlightAware Approximate
10:32AM -0.5369 106.4204 312° West  Level Estimated
10:33AM -0.6158 106.5219 312° West  Level FlightAware Approximate
10:34AM -0.5369 106.4204 312° West  Level Estimated
10:35AM -0.6158 106.5219 312° West  Level FlightAware Approximate
10:36AM -0.5369 106.4204 312° West  Level Estimated
10:37AM -0.6158 106.5219 312° West  Level FlightAware Approximate
10:38AM -0.5369 106.4204 312° West  Level Estimated
10:39AM -0.6158 106.5219 312° West  Level FlightAware Approximate
10:40AM -0.5369 106.4204 312° West  Level Estimated
10:41AM -0.6158 106.5219 312° West  Level FlightAware Approximate
10:42AM -0.5369 106.4204 312° West  Level Estimated